HBE weather

Borg El Arab International Airport
Alexandria, Alexandria Governorate, Egypt

Public forecast

Using degrees Celsius for public forecast. Weather courtesy of forecast.io.

Current aviation weather report (METAR) for Borg El Arab International Airport

Retrieved 2019/11/17 11:00 UTC (17 minutes ago):

HEBA 171100Z 06008KT CAVOK 25/16 Q1014 NOSIG

Aviation forecast (TAF) for Borg El Arab International Airport

Retrieved 2019/11/17 06:51 UTC (4 hours ago):

TAF HEBA 170500Z 1706/1812 03010KT 9999 SCT020 TEMPO 1706/1712 7000 -RA BKN020